Have a Safe July 4th! 

Flight Track Log - Related Links

Times and Time Zones

All times are in EDT time to prevent confusion due to time zone crossing. See the ASQ5941 flight status page for this flight to view local times or setup timezone preferences in your user account.

Time Position Orientation Groundspeed Altitude Reporting Facility
EDT Latitude Longitude Course Direction KTS MPH feet Rate Location/Type
Wed 06:02:00 PM 41.3909 -76.2262 304° West  Level Estimated
Wed 06:03:00 PM 41.5222 -76.0916 312° West  Level FlightAware Approximate
Wed 06:04:00 PM 41.5736 -76.1971 304° West  Level FlightAware Approximate
Wed 06:04:30 PM 41.2333 -76.1397 274° West 259 298 7,900  Level New York Center
Wed 06:05:00 PM 41.3503 -75.8354 North  Level Estimated
Wed 06:05:29 PM 41.2497 -76.2378 283° West 267 307 8,000  Level New York Center
Wed 06:06:00 PM 41.4203 -75.8905 304° West  Level FlightAware Approximate
Wed 06:06:28 PM 41.2608 -76.3131 281° West 261 300 7,900  Level New York Center
Wed 06:07:00 PM 41.4677 -75.9844 323° Northwest  Level FlightAware Approximate
Wed 06:07:29 PM 41.2772 -76.4056 283° West 261 300 9,700  Level New York Center
Wed 06:08:00 PM 41.5142 -76.0771 298° West  Level FlightAware Approximate
Wed 06:08:28 PM 41.3492 -76.4697 326° Northwest 261 300 11,000  Level New York Center
Wed 06:09:29 PM 41.4325 -76.5156 338° Northwest 304 350 12,300 1,550 Climbing New York Center
Wed 06:10:28 PM 41.5147 -76.5778 330° Northwest 332 382 14,100 1,815 Climbing New York Center
Wed 06:11:28 PM 41.5822 -76.6447 323° Northwest 337 388 15,900 1,438 Climbing New York Center
Wed 06:12:29 PM 41.6675 -76.7300 323° Northwest 337 388 17,000 1,091 Climbing New York Center
Wed 06:13:29 PM 41.7136 -76.8481 298° West 348 400 18,100 1,424 Climbing New York Center
Wed 06:14:27 PM 41.7622 -76.9553 301° West 348 400 19,800 1,319 Climbing New York Center
Wed 06:15:50 PM 41.8139 -77.1022 295° West 347 399 21,200 993 Climbing Cleveland Center
Wed 06:16:52 PM 41.8550 -77.2250 294° West 358 412 22,200 968 Climbing Cleveland Center
Wed 06:17:54 PM 41.8956 -77.3486 294° West 361 415 23,200 1,065 Climbing Cleveland Center
Wed 06:18:56 PM 41.9450 -77.4969 294° West 361 415 24,400 1,016 Climbing Cleveland Center
Wed 06:19:58 PM 41.9847 -77.6211 293° West 361 415 25,300 919 Climbing Cleveland Center
Wed 06:21:00 PM 42.0258 -77.7447 294° West 361 415 26,300 960 Climbing Cleveland Center
Wed 06:22:03 PM 42.0669 -77.8697 294° West 363 418 27,300 816 Climbing Cleveland Center
Wed 06:23:05 PM 42.1078 -77.9967 293° West 368 423 28,000 339 Climbing Cleveland Center
Wed 06:24:07 PM 42.1497 -78.1256 294° West 369 425 28,000  Level Cleveland Center
Wed 06:25:09 PM 42.1994 -78.2806 293° West 372 428 28,000  Level Cleveland Center
Wed 06:26:11 PM 42.2394 -78.4056 293° West 370 426 28,000  Level Cleveland Center
Wed 06:27:13 PM 42.2781 -78.5281 293° West 359 413 28,000  Level Cleveland Center
Wed 06:28:16 PM 42.3175 -78.6494 294° West 357 411 28,000  Level Cleveland Center
Wed 06:29:18 PM 42.3556 -78.7717 293° West 356 410 28,000  Level Cleveland Center
Wed 06:30:20 PM 42.3972 -78.9050 293° West 356 410 28,000  Level Cleveland Center
Wed 06:31:22 PM 42.4086 -79.0378 277° West 359 413 28,000  Level Cleveland Center
Wed 06:32:24 PM 42.4172 -79.1681 275° West 356 410 28,000  Level Cleveland Center
Wed 06:33:26 PM 42.4275 -79.3183 275° West 336 387 28,000 -145 Level Cleveland Center
Wed 06:34:28 PM 42.4336 -79.4344 274° West 316 364 27,700 -912 Descending Cleveland Center
Wed 06:35:31 PM 42.4419 -79.5519 276° West 316 364 26,100 -816 Descending Cleveland Center
Wed 06:36:33 PM 42.4494 -79.6706 275° West 319 367 26,000 -48 Descending Cleveland Center
Wed 06:37:35 PM 42.4569 -79.8136 274° West 319 367 26,000  Level Cleveland Center
Wed 06:38:37 PM 42.4647 -79.9342 275° West 321 369 26,000  Level Cleveland Center
Wed 06:39:39 PM 42.4708 -80.0483 274° West 323 372 26,000  Level Cleveland Center
Wed 06:40:41 PM 42.4769 -80.1708 274° West 325 374 26,000  Level Cleveland Center
Wed 06:41:44 PM 42.4847 -80.3156 274° West 325 374 26,000  Level Cleveland Center
Wed 06:42:46 PM 42.4922 -80.4361 275° West 325 374 26,000  Level Cleveland Center
Wed 06:43:48 PM 42.4989 -80.5578 274° West 324 373 26,000  Level Cleveland Center
Wed 06:44:50 PM 42.5050 -80.6775 274° West 323 372 26,000  Level Cleveland Center
Wed 06:45:52 PM 42.5083 -80.7994 272° West 324 373 26,000  Level Cleveland Center
Wed 06:46:54 PM 42.5133 -80.9428 273° West 322 371 26,000  Level Cleveland Center
Wed 06:47:57 PM 42.5169 -81.0625 272° West 321 369 26,000  Level Cleveland Center
Wed 06:48:59 PM 42.5206 -81.1847 272° West 322 371 26,000  Level Cleveland Center
Wed 06:50:01 PM 42.5269 -81.3092 274° West 328 377 26,000  Level Cleveland Center
Wed 06:51:03 PM 42.5408 -81.4342 279° West 335 386 26,000  Level Cleveland Center
Wed 06:52:05 PM 42.5581 -81.5800 279° West 333 383 26,000  Level Cleveland Center
Wed 06:53:07 PM 42.5711 -81.6958 279° West 317 365 26,000  Level Cleveland Center
Wed 06:54:09 PM 42.5825 -81.7972 279° West 312 359 26,000  Level Cleveland Center
Wed 06:55:12 PM 42.5975 -81.9386 278° West 314 361 26,000  Level Cleveland Center
Wed 06:56:14 PM 42.6108 -82.0619 278° West 327 376 26,000  Level Cleveland Center
Wed 06:57:16 PM 42.6236 -82.1836 278° West 327 376 26,000  Level Cleveland Center
Wed 06:58:18 PM 42.6372 -82.3042 279° West 327 376 26,000  Level Cleveland Center
Wed 06:59:20 PM 42.6489 -82.4247 278° West 327 376 26,000  Level Cleveland Center
Wed 07:00:22 PM 42.6650 -82.5675 279° West 325 374 26,000  Level Cleveland Center
Wed 07:01:24 PM 42.6767 -82.6867 278° West 322 371 26,000  Level Cleveland Center
Wed 07:02:26 PM 42.6889 -82.8044 278° West 321 369 26,000  Level Cleveland Center
Wed 07:03:28 PM 42.7003 -82.9233 277° West 321 369 26,000  Level Cleveland Center
Wed 07:04:30 PM 42.7133 -83.0422 279° West 321 369 26,000  Level Cleveland Center
Wed 07:05:32 PM 42.7308 -83.1911 279° West 328 377 26,000  Level Cleveland Center
Wed 07:06:34 PM 42.7467 -83.3258 279° West 354 407 26,000  Level Cleveland Center
Wed 07:07:36 PM 42.7628 -83.4700 279° West 381 438 26,000  Level Cleveland Center
Wed 07:08:38 PM 42.7803 -83.6164 279° West 393 452 26,000  Level Cleveland Center
Wed 07:09:40 PM 42.7889 -83.7631 275° West 394 453 26,000  Level Cleveland Center
Wed 07:10:43 PM 42.7989 -83.9397 274° West 393 452 26,000  Level Cleveland Center
Wed 07:11:45 PM 42.8075 -84.0847 275° West 390 449 26,000  Level Cleveland Center
Wed 07:12:47 PM 42.8147 -84.2306 274° West 390 449 26,000  Level Cleveland Center
Wed 07:13:49 PM 42.8217 -84.3731 274° West 390 449 26,000  Level Cleveland Center
Wed 07:14:51 PM 42.8297 -84.5197 274° West 390 449 26,000  Level Cleveland Center
Wed 07:15:52 PM 42.8386 -84.6947 274° West 388 447 26,000  Level Cleveland Center
Wed 07:16:54 PM 42.8461 -84.8425 274° West 389 448 26,000  Level Cleveland Center
Wed 07:17:56 PM 42.8425 -84.9894 268° West 397 457 26,000  Level Chicago Center
Wed 07:18:59 PM 42.8253 -85.1461 262° West 414 476 26,000  Level Chicago Center
Wed 07:20:01 PM 42.8078 -85.3050 262° West 420 483 26,000  Level Chicago Center
Wed 07:21:03 PM 42.7906 -85.4619 262° West 420 483 26,000  Level Chicago Center
Wed 07:22:05 PM 42.7597 -85.6458 257° West 418 481 26,000 -339 Level Chicago Center
Wed 07:23:07 PM 42.7317 -85.8003 256° West 418 481 25,300 -1,296 Descending Chicago Center
Wed 07:24:10 PM 42.7050 -85.9544 257° West 417 480 23,300 -1,701 Descending Chicago Center
Wed 07:26:14 PM 42.6494 -86.2525 256° West 403 464 20,000 -1,065 Descending Chicago Center
Wed 07:27:16 PM 42.6228 -86.3881 255° West 377 434 20,000 -387 Level Chicago Center
Wed 07:28:18 PM 42.5961 -86.5300 256° West 384 442 19,200 -1,920 Descending Chicago Center
Wed 07:29:21 PM 42.5658 -86.6975 256° West 383 441 16,000 -2,832 Descending Chicago Center
Wed 07:30:23 PM 42.5336 -86.8275 251° West 371 427 13,300 -2,274 Descending Chicago Center
Wed 07:31:25 PM 42.5022 -86.9456 250° West 341 392 11,300 -1,113 Descending Chicago Center
Wed 07:32:27 PM 42.4683 -87.0619 248° West 334 384 11,000 -145 Descending Chicago Center
Wed 07:33:29 PM 42.4364 -87.1792 250° West 332 382 11,000  Level Chicago Center
Wed 07:34:32 PM 42.4036 -87.2975 249° West 333 383 11,000  Level Chicago Center
Wed 07:35:34 PM 42.3678 -87.4286 250° West 337 388 11,000  Level Chicago Center
Wed 07:36:36 PM 42.3161 -87.5569 241° Southwest 350 403 11,000  Level Chicago Center
Wed 07:37:38 PM 42.2356 -87.6439 219° Southwest 346 398 11,000 -387 Level Chicago Center
Wed 07:38:40 PM 42.1731 -87.7103 218° Southwest 282 325 10,200 -1,296 Descending Chicago Center
Wed 07:39:43 PM 42.1097 -87.7761 218° Southwest 270 311 8,300 -1,488 Descending Chicago Center
Wed 07:40:45 PM 42.0917 -87.8633 254° West 248 285 7,100 -629 Descending Chicago Center
Wed 07:41:47 PM 42.0917 -87.9631 270° West 248 285 7,000 -97 Descending Chicago Center
Wed 07:42:49 PM 42.0911 -88.0503 270° West 236 272 6,900 -677 Descending Chicago Center
Wed 07:43:51 PM 42.0908 -88.1342 270° West 216 249 5,600 -1,248 Descending Chicago Center
Wed 07:44:54 PM 42.0647 -88.1833 234° Southwest 203 234 4,300 -1,200 Descending Chicago Center
Wed 07:45:56 PM 42.0214 -88.1517 152° Southeast 191 220 3,100 -919 Descending Chicago Center
Wed 07:46:58 PM 42.0025 -88.0900 112° Southeast 183 211 2,400 -435 Descending Chicago Center
Wed 07:48:00 PM 42.0019 -88.0289 91° East 168 193 2,200 -435 Descending Chicago Center
Wed 07:49:02 PM 42.0017 -87.9714 90° East 146 168 1,500 -624 Descending Chicago Center
Wed 07:50:05 PM 42.0025 -87.9211 89° East 143 165 900 -571 Descending Chicago Center

Login

Don't have an account? Register now (free) for customized features, flight alerts, and more!